createdAt,value
2023-01-12T00:01:39.037Z,16.70
2023-01-12T00:05:22.235Z,16.80
2023-01-12T00:09:07.187Z,16.90
2023-01-12T00:12:50.207Z,17.30
2023-01-12T00:16:31.769Z,17.00
2023-01-12T00:20:14.874Z,18.20
2023-01-12T00:23:57.906Z,18.40
2023-01-12T00:27:40.965Z,18.00
2023-01-12T00:31:24.223Z,18.50
2023-01-12T00:34:59.733Z,19.40
2023-01-12T00:38:42.871Z,19.00
2023-01-12T00:42:24.313Z,18.60
2023-01-12T00:46:07.794Z,20.30
2023-01-12T00:49:51.143Z,19.20
2023-01-12T00:53:34.410Z,19.50
2023-01-12T00:57:12.635Z,19.60
2023-01-12T01:00:55.987Z,18.10
2023-01-12T01:04:39.170Z,18.40
2023-01-12T01:08:22.347Z,18.80
2023-01-12T01:12:05.701Z,20.30
2023-01-12T01:15:41.544Z,19.30
2023-01-12T01:19:24.545Z,19.00
2023-01-12T01:23:07.819Z,18.80
2023-01-12T01:26:51.065Z,19.30
2023-01-12T01:30:34.210Z,19.00
2023-01-12T01:34:17.229Z,18.30
2023-01-12T01:38:00.374Z,19.00
2023-01-12T01:41:36.027Z,20.60
2023-01-12T01:45:31.021Z,20.40
2023-01-12T01:49:14.201Z,19.80
2023-01-12T01:53:03.320Z,20.00
2023-01-12T01:56:21.359Z,19.50
2023-01-12T02:03:32.070Z,19.40
2023-01-12T02:07:16.933Z,19.40
2023-01-12T02:10:42.879Z,20.30
2023-01-12T02:14:09.635Z,20.20
2023-01-12T02:17:58.530Z,20.20
2023-01-12T02:21:44.031Z,18.40
2023-01-12T02:25:35.836Z,19.20
2023-01-12T02:29:27.691Z,18.80
2023-01-12T02:33:13.287Z,20.30
2023-01-12T02:37:08.118Z,18.70
2023-01-12T02:41:00.186Z,19.20
2023-01-12T02:44:43.279Z,20.90
2023-01-12T02:48:47.504Z,20.90
2023-01-12T02:52:31.143Z,19.70
2023-01-12T02:56:14.177Z,21.60
2023-01-12T02:59:57.333Z,21.40
2023-01-12T03:03:40.397Z,23.10
2023-01-12T03:07:23.441Z,20.10
2023-01-12T03:11:18.508Z,19.10
2023-01-12T03:15:01.713Z,20.60
2023-01-12T03:19:00.321Z,20.70
2023-01-12T03:22:43.370Z,20.10
2023-01-12T03:26:26.444Z,18.50
2023-01-12T03:30:09.804Z,20.70
2023-01-12T03:33:52.812Z,21.30
2023-01-12T03:37:41.712Z,20.40
2023-01-12T03:41:27.343Z,20.60
2023-01-12T03:45:09.011Z,20.60
2023-01-12T03:48:40.728Z,21.50
2023-01-12T03:52:35.738Z,21.60
2023-01-12T03:56:18.970Z,22.50
2023-01-12T03:59:54.904Z,21.70
2023-01-12T04:03:52.825Z,21.80
2023-01-12T04:07:35.850Z,22.20
2023-01-12T04:11:08.972Z,22.40
2023-01-12T04:14:52.117Z,23.00
2023-01-12T04:18:35.142Z,23.70
2023-01-12T04:22:06.442Z,23.90
2023-01-12T04:25:52.294Z,22.50
2023-01-12T04:29:35.359Z,22.00
2023-01-12T04:33:18.281Z,23.10
2023-01-12T04:37:01.264Z,21.80
2023-01-12T04:40:44.439Z,22.40
2023-01-12T04:44:19.723Z,21.10
2023-01-12T04:48:03.115Z,21.70
2023-01-12T04:51:47.180Z,22.70
2023-01-12T04:55:30.361Z,20.80
2023-01-12T04:58:56.227Z,21.60
2023-01-12T05:02:27.911Z,21.90
2023-01-12T05:06:12.469Z,22.60
2023-01-12T05:10:10.743Z,22.30
2023-01-12T05:13:53.896Z,21.20
2023-01-12T05:18:05.814Z,22.30
2023-01-12T05:21:50.476Z,22.10
2023-01-12T05:25:28.237Z,20.90
2023-01-12T05:29:12.855Z,22.50
2023-01-12T05:32:57.585Z,20.40
2023-01-12T05:36:48.301Z,20.40
2023-01-12T05:40:34.692Z,20.80
2023-01-12T05:44:19.979Z,21.00
2023-01-12T05:48:01.987Z,20.00
2023-01-12T05:51:45.527Z,20.80
2023-01-12T05:55:21.242Z,20.60
2023-01-12T05:59:05.962Z,20.20
2023-01-12T06:02:49.532Z,19.40
2023-01-12T06:06:33.012Z,18.60
2023-01-12T06:10:17.630Z,19.90
2023-01-12T06:14:17.696Z,20.20
2023-01-12T06:18:02.335Z,21.30
2023-01-12T06:21:45.861Z,20.70
2023-01-12T06:25:30.627Z,20.50
2023-01-12T06:29:17.956Z,20.20
2023-01-12T06:33:02.725Z,20.50
2023-01-12T06:36:50.458Z,19.50
2023-01-12T06:40:35.182Z,19.80
2023-01-12T06:44:19.834Z,19.40
2023-01-12T06:48:04.344Z,20.10
2023-01-12T06:51:49.217Z,20.60
2023-01-12T06:55:34.010Z,20.80
2023-01-12T06:59:18.673Z,21.60
2023-01-12T07:03:03.290Z,21.80
2023-01-12T07:06:46.384Z,20.30
2023-01-12T07:10:30.858Z,20.90
2023-01-12T07:14:09.296Z,20.30
2023-01-12T07:17:53.824Z,20.20
2023-01-12T07:21:39.540Z,20.30
2023-01-12T07:25:24.096Z,20.30
2023-01-12T07:29:01.180Z,21.80
2023-01-12T07:32:46.083Z,21.30
2023-01-12T07:36:30.522Z,19.60
2023-01-12T07:40:14.873Z,20.80
2023-01-12T07:44:02.230Z,20.80
2023-01-12T07:47:46.996Z,20.40
2023-01-12T07:51:31.381Z,20.20
2023-01-12T07:55:15.916Z,21.20
2023-01-12T07:59:00.343Z,21.50
2023-01-12T08:02:44.707Z,20.70
2023-01-12T08:06:29.145Z,20.30
2023-01-12T08:09:58.573Z,20.80
2023-01-12T08:13:43.083Z,22.50
2023-01-12T08:17:30.405Z,20.80
2023-01-12T08:21:15.119Z,20.60
2023-01-12T08:24:59.754Z,22.80
2023-01-12T08:28:44.448Z,23.10
2023-01-12T08:32:29.112Z,22.50
2023-01-12T08:40:03.186Z,21.30
2023-01-12T08:43:46.024Z,22.20
2023-01-12T08:47:33.610Z,20.90
2023-01-12T08:51:18.176Z,20.70
2023-01-12T08:55:02.696Z,22.90
2023-01-12T08:58:47.144Z,22.80
2023-01-12T09:02:20.456Z,23.40
2023-01-12T09:06:05.056Z,24.10
2023-01-12T09:09:37.854Z,22.00
2023-01-12T09:13:22.318Z,20.70
2023-01-12T09:17:07.021Z,20.20
2023-01-12T09:20:44.363Z,22.00
2023-01-12T09:24:14.052Z,20.10
2023-01-12T09:27:59.709Z,20.00
2023-01-12T09:31:44.438Z,19.40
2023-01-12T09:35:22.068Z,18.50
2023-01-12T09:39:09.834Z,19.00
2023-01-12T09:42:56.288Z,17.50
2023-01-12T09:46:39.652Z,17.00
2023-01-12T09:50:27.312Z,17.20
2023-01-12T09:54:06.554Z,16.20
2023-01-12T09:57:51.136Z,16.50
2023-01-12T10:01:35.823Z,15.70
2023-01-12T10:05:23.804Z,16.90
2023-01-12T10:09:38.765Z,17.40
2023-01-12T10:13:23.279Z,16.70
2023-01-12T10:17:12.017Z,16.00
2023-01-12T10:21:14.579Z,16.50
2023-01-12T10:25:00.723Z,15.50
2023-01-12T10:28:37.012Z,15.20
2023-01-12T10:32:23.267Z,15.40
2023-01-12T10:36:08.752Z,15.00
2023-01-12T10:40:04.898Z,15.10
2023-01-12T10:43:56.915Z,12.90
2023-01-12T10:47:17.563Z,12.20
2023-01-12T10:51:00.312Z,11.60
2023-01-12T10:54:58.926Z,11.00
2023-01-12T10:58:44.831Z,10.00
2023-01-12T11:02:48.638Z,10.00
2023-01-12T11:06:36.196Z,11.00
2023-01-12T11:10:23.372Z,11.90
2023-01-12T11:14:08.015Z,10.70
2023-01-12T11:17:58.459Z,10.10
2023-01-12T11:21:37.626Z,9.80
2023-01-12T11:25:28.120Z,10.50
2023-01-12T11:29:15.356Z,11.50
2023-01-12T11:32:58.082Z,9.60
2023-01-12T11:36:42.564Z,9.50
2023-01-12T11:40:27.027Z,9.20
2023-01-12T11:44:14.015Z,8.40
2023-01-12T11:48:01.390Z,9.30
2023-01-12T11:51:45.875Z,7.70
2023-01-12T11:55:19.223Z,7.20
2023-01-12T11:59:21.356Z,7.20
2023-01-12T12:03:07.269Z,6.30
2023-01-12T12:06:54.226Z,7.70
2023-01-12T12:10:38.674Z,6.30
2023-01-12T12:14:25.792Z,6.30
2023-01-12T12:18:31.396Z,5.90
2023-01-12T12:22:18.928Z,6.40
2023-01-12T12:26:15.021Z,5.60
2023-01-12T12:30:08.093Z,5.50
2023-01-12T12:34:03.032Z,5.70
2023-01-12T12:37:56.144Z,5.50
2023-01-12T12:41:53.747Z,5.90
2023-01-12T12:45:43.945Z,5.90
2023-01-12T12:49:30.701Z,5.70
2023-01-12T12:53:15.109Z,5.90
2023-01-12T12:56:59.570Z,6.50
2023-01-12T13:00:53.157Z,6.30
2023-01-12T13:04:40.367Z,6.80
2023-01-12T13:08:24.865Z,6.40
2023-01-12T13:12:27.318Z,6.10
2023-01-12T13:16:12.673Z,6.80
2023-01-12T13:20:01.356Z,6.50
2023-01-12T13:23:48.187Z,6.40
2023-01-12T13:27:35.582Z,7.00
2023-01-12T13:31:20.317Z,6.10
2023-01-12T13:35:09.059Z,6.30
2023-01-12T13:38:59.695Z,6.10
2023-01-12T13:42:43.657Z,5.90
2023-01-12T13:46:37.562Z,6.00
2023-01-12T13:50:25.137Z,6.40
2023-01-12T13:54:09.837Z,5.60
2023-01-12T13:58:00.500Z,5.50
2023-01-12T14:01:45.368Z,5.80
2023-01-12T14:05:43.645Z,5.90
2023-01-12T14:09:30.942Z,5.30
2023-01-12T14:13:36.554Z,4.80
2023-01-12T14:17:19.670Z,4.70
2023-01-12T14:21:07.363Z,4.70
2023-01-12T14:24:54.960Z,4.30
2023-01-12T14:28:39.520Z,4.20
2023-01-12T14:32:24.258Z,4.90
2023-01-12T14:36:09.454Z,4.40
2023-01-12T14:39:54.191Z,5.00
2023-01-12T14:43:37.276Z,4.80
2023-01-12T14:47:34.779Z,4.50
2023-01-12T14:51:19.904Z,5.00
2023-01-12T14:55:10.622Z,5.60
2023-01-12T14:58:49.996Z,5.30
2023-01-12T15:02:34.750Z,5.50
2023-01-12T15:06:10.638Z,5.90
2023-01-12T15:09:43.939Z,5.30
2023-01-12T15:13:31.392Z,6.30
2023-01-12T15:17:15.392Z,6.00
2023-01-12T15:20:58.135Z,5.90
2023-01-12T15:24:41.237Z,6.40
2023-01-12T15:28:26.117Z,6.70
2023-01-12T15:32:05.545Z,6.60
2023-01-12T15:35:42.866Z,7.30
2023-01-12T15:39:27.596Z,7.80
2023-01-12T15:43:12.274Z,7.00
2023-01-12T15:46:56.929Z,8.50
2023-01-12T15:50:41.412Z,7.80
2023-01-12T15:54:18.643Z,9.30
2023-01-12T15:58:03.180Z,10.80
2023-01-12T16:01:48.100Z,10.00
2023-01-12T16:05:32.949Z,10.70
2023-01-12T16:09:10.501Z,11.50
2023-01-12T16:12:55.023Z,10.70
2023-01-12T16:16:39.677Z,10.70
2023-01-12T16:20:24.314Z,10.80
2023-01-12T16:24:08.917Z,11.60
2023-01-12T16:27:46.509Z,12.50
2023-01-12T16:31:31.092Z,11.60
2023-01-12T16:35:02.438Z,12.50
2023-01-12T16:38:47.196Z,13.00
2023-01-12T16:42:31.707Z,12.90
2023-01-12T16:46:16.469Z,14.10
2023-01-12T16:50:01.176Z,14.10
2023-01-12T16:53:46.020Z,14.40
2023-01-12T16:57:30.801Z,14.90
2023-01-12T17:01:15.579Z,15.30
2023-01-12T17:04:49.187Z,16.40
2023-01-12T17:08:33.836Z,15.80
2023-01-12T17:11:59.450Z,15.80
2023-01-12T17:15:44.469Z,15.90
2023-01-12T17:19:29.430Z,15.90
2023-01-12T17:23:13.963Z,15.90
2023-01-12T17:27:04.707Z,15.90
2023-01-12T17:30:35.125Z,16.10
2023-01-12T17:34:20.099Z,17.70
2023-01-12T17:38:04.730Z,16.90
2023-01-12T17:41:48.760Z,18.30
2023-01-12T17:45:33.696Z,19.40
2023-01-12T17:49:18.479Z,18.40
2023-01-12T17:53:03.141Z,20.80
2023-01-12T17:56:47.781Z,20.30
2023-01-12T18:00:24.965Z,19.30
2023-01-12T18:04:09.566Z,18.40
2023-01-12T18:07:54.210Z,18.50
2023-01-12T18:11:39.023Z,18.70
2023-01-12T18:15:23.790Z,19.10
2023-01-12T18:18:56.760Z,19.80
2023-01-12T18:22:41.134Z,19.40
2023-01-12T18:26:24.389Z,19.60
2023-01-12T18:29:57.163Z,18.50
2023-01-12T18:33:34.235Z,19.30
2023-01-12T18:37:18.589Z,19.70
2023-01-12T18:40:51.991Z,21.20
2023-01-12T18:44:24.752Z,15.10
2023-01-12T18:48:07.670Z,19.90
2023-01-12T18:51:53.668Z,21.10
2023-01-12T18:55:38.138Z,20.30
2023-01-12T18:59:15.516Z,20.10
2023-01-12T19:02:42.635Z,20.80
2023-01-12T19:06:33.044Z,20.50
2023-01-12T19:10:17.539Z,20.80
2023-01-12T19:14:00.391Z,22.10
2023-01-12T19:17:47.790Z,21.90
2023-01-12T19:21:30.757Z,22.30
2023-01-12T19:25:13.762Z,21.50
2023-01-12T19:28:58.105Z,19.90
2023-01-12T19:32:42.548Z,21.50
2023-01-12T19:36:15.400Z,20.70
2023-01-12T19:40:08.941Z,19.20
2023-01-12T19:43:34.365Z,19.00
2023-01-12T19:47:18.863Z,18.30
2023-01-12T19:51:01.961Z,17.80
2023-01-12T19:54:39.542Z,17.20
2023-01-12T19:58:16.241Z,18.20
2023-01-12T20:01:49.476Z,18.20
2023-01-12T20:05:34.105Z,17.40
2023-01-12T20:09:19.543Z,16.00
2023-01-12T20:13:04.439Z,16.80
2023-01-12T20:16:38.077Z,17.10
2023-01-12T20:20:22.641Z,15.90
2023-01-12T20:24:07.234Z,17.40
2023-01-12T20:27:51.835Z,16.60
2023-01-12T20:31:36.638Z,16.80
2023-01-12T20:35:21.516Z,17.90
2023-01-12T20:39:06.223Z,16.30
2023-01-12T20:42:43.612Z,16.60
2023-01-12T20:46:28.232Z,18.30
2023-01-12T20:50:12.801Z,17.60
2023-01-12T20:53:58.833Z,16.80
2023-01-12T20:57:43.362Z,17.20
2023-01-12T21:01:28.779Z,16.90
2023-01-12T21:05:13.547Z,17.40
2023-01-12T21:08:46.506Z,17.00
2023-01-12T21:12:30.911Z,15.30
2023-01-12T21:16:16.788Z,15.50
2023-01-12T21:20:01.506Z,15.90
2023-01-12T21:23:46.110Z,17.40
2023-01-12T21:27:30.588Z,15.80
2023-01-12T21:31:15.064Z,16.50
2023-01-12T21:34:59.452Z,15.60
2023-01-12T21:38:44.145Z,16.10
2023-01-12T21:42:27.009Z,14.80
2023-01-12T21:46:11.721Z,16.60
2023-01-12T21:49:56.148Z,13.50
2023-01-12T21:53:40.610Z,14.10
2023-01-12T21:57:25.076Z,14.10
2023-01-12T22:00:57.401Z,13.30
2023-01-12T22:04:41.884Z,13.70
2023-01-12T22:08:29.150Z,13.40
2023-01-12T22:12:13.652Z,12.20
2023-01-12T22:15:58.081Z,11.70
2023-01-12T22:19:38.041Z,11.00
2023-01-12T22:23:23.681Z,10.80
2023-01-12T22:27:00.768Z,10.50
2023-01-12T22:30:45.343Z,11.80
2023-01-12T22:34:29.841Z,10.40
2023-01-12T22:38:14.817Z,10.40
2023-01-12T22:42:08.130Z,11.00
2023-01-12T22:45:52.624Z,10.80
2023-01-12T22:49:37.079Z,10.60
2023-01-12T22:53:21.552Z,11.30
2023-01-12T22:57:06.249Z,10.90
2023-01-12T23:00:51.023Z,10.90
2023-01-12T23:04:35.491Z,10.90
2023-01-12T23:08:19.942Z,11.00
2023-01-12T23:12:04.282Z,10.60
2023-01-12T23:15:48.753Z,10.70
2023-01-12T23:19:33.264Z,10.10
2023-01-12T23:23:17.671Z,9.80
2023-01-12T23:27:02.090Z,10.20
2023-01-12T23:30:46.662Z,10.80
2023-01-12T23:34:31.648Z,10.80
2023-01-12T23:38:16.039Z,10.50
2023-01-12T23:42:00.454Z,9.90
2023-01-12T23:45:45.398Z,10.00
2023-01-12T23:49:19.077Z,10.30
2023-01-12T23:53:03.483Z,11.00
2023-01-12T23:56:48.067Z,10.40
